sensor_id;sensor_type;location;lat;lon;timestamp;P1;durP1;ratioP1;P2;durP2;ratioP2
20179;SDS011;10249;48.900;9.090;2023-02-13T00:02:22;9.50;;;9.20;;
20179;SDS011;10249;48.900;9.090;2023-02-13T00:04:49;9.83;;;9.53;;
20179;SDS011;10249;48.900;9.090;2023-02-13T00:07:16;9.47;;;9.17;;
20179;SDS011;10249;48.900;9.090;2023-02-13T00:09:43;9.50;;;9.20;;
20179;SDS011;10249;48.900;9.090;2023-02-13T00:12:10;9.57;;;9.27;;
20179;SDS011;10249;48.900;9.090;2023-02-13T00:14:39;9.50;;;9.20;;
20179;SDS011;10249;48.900;9.090;2023-02-13T00:17:06;9.60;;;9.30;;
20179;SDS011;10249;48.900;9.090;2023-02-13T00:19:33;9.20;;;8.90;;
20179;SDS011;10249;48.900;9.090;2023-02-13T00:22:00;9.20;;;8.90;;
20179;SDS011;10249;48.900;9.090;2023-02-13T00:24:27;9.20;;;8.90;;
20179;SDS011;10249;48.900;9.090;2023-02-13T00:26:54;9.13;;;8.83;;
20179;SDS011;10249;48.900;9.090;2023-02-13T00:29:21;9.47;;;9.17;;
20179;SDS011;10249;48.900;9.090;2023-02-13T00:31:50;9.20;;;8.90;;
20179;SDS011;10249;48.900;9.090;2023-02-13T00:34:17;9.23;;;8.93;;
20179;SDS011;10249;48.900;9.090;2023-02-13T00:36:44;9.10;;;8.80;;
20179;SDS011;10249;48.900;9.090;2023-02-13T00:39:11;9.47;;;9.17;;
20179;SDS011;10249;48.900;9.090;2023-02-13T00:41:38;11.33;;;10.93;;
20179;SDS011;10249;48.900;9.090;2023-02-13T00:44:05;9.17;;;8.87;;
20179;SDS011;10249;48.900;9.090;2023-02-13T00:46:32;9.30;;;9.00;;
20179;SDS011;10249;48.900;9.090;2023-02-13T00:49:01;9.40;;;9.10;;
20179;SDS011;10249;48.900;9.090;2023-02-13T00:51:29;9.40;;;9.10;;
20179;SDS011;10249;48.900;9.090;2023-02-13T00:53:56;9.40;;;9.10;;
20179;SDS011;10249;48.900;9.090;2023-02-13T00:56:23;10.20;;;9.90;;
20179;SDS011;10249;48.900;9.090;2023-02-13T00:58:50;9.40;;;9.10;;
20179;SDS011;10249;48.900;9.090;2023-02-13T01:01:17;9.60;;;9.30;;
20179;SDS011;10249;48.900;9.090;2023-02-13T01:03:44;11.83;;;11.43;;
20179;SDS011;10249;48.900;9.090;2023-02-13T01:06:12;10.23;;;9.77;;
20179;SDS011;10249;48.900;9.090;2023-02-13T01:08:39;12.53;;;11.63;;
20179;SDS011;10249;48.900;9.090;2023-02-13T01:11:06;8.10;;;7.80;;
20179;SDS011;10249;48.900;9.090;2023-02-13T01:13:34;7.30;;;7.10;;
20179;SDS011;10249;48.900;9.090;2023-02-13T01:16:01;7.00;;;6.80;;
20179;SDS011;10249;48.900;9.090;2023-02-13T01:18:28;6.80;;;6.60;;
20179;SDS011;10249;48.900;9.090;2023-02-13T01:20:55;6.90;;;6.70;;
20179;SDS011;10249;48.900;9.090;2023-02-13T01:23:24;7.00;;;6.80;;
20179;SDS011;10249;48.900;9.090;2023-02-13T01:25:51;6.80;;;6.60;;
20179;SDS011;10249;48.900;9.090;2023-02-13T01:28:18;6.90;;;6.70;;
20179;SDS011;10249;48.900;9.090;2023-02-13T01:30:51;7.10;;;6.90;;
20179;SDS011;10249;48.900;9.090;2023-02-13T01:33:18;7.00;;;6.80;;
20179;SDS011;10249;48.900;9.090;2023-02-13T01:35:45;7.33;;;7.13;;
20179;SDS011;10249;48.900;9.090;2023-02-13T01:38:12;7.57;;;7.37;;
20179;SDS011;10249;48.900;9.090;2023-02-13T01:40:44;7.40;;;7.20;;
20179;SDS011;10249;48.900;9.090;2023-02-13T01:43:11;7.60;;;7.40;;
20179;SDS011;10249;48.900;9.090;2023-02-13T01:45:38;7.67;;;7.47;;
20179;SDS011;10249;48.900;9.090;2023-02-13T01:48:06;7.70;;;7.50;;
20179;SDS011;10249;48.900;9.090;2023-02-13T01:50:34;7.70;;;7.50;;
20179;SDS011;10249;48.900;9.090;2023-02-13T01:53:04;7.97;;;7.77;;
20179;SDS011;10249;48.900;9.090;2023-02-13T01:55:31;8.00;;;7.80;;
20179;SDS011;10249;48.900;9.090;2023-02-13T01:58:01;8.30;;;8.00;;
20179;SDS011;10249;48.900;9.090;2023-02-13T02:00:30;8.23;;;7.97;;
20179;SDS011;10249;48.900;9.090;2023-02-13T02:02:59;8.40;;;8.10;;
20179;SDS011;10249;48.900;9.090;2023-02-13T02:05:27;8.60;;;8.30;;
20179;SDS011;10249;48.900;9.090;2023-02-13T02:07:55;11.90;;;11.40;;
20179;SDS011;10249;48.900;9.090;2023-02-13T02:10:24;8.50;;;8.20;;
20179;SDS011;10249;48.900;9.090;2023-02-13T02:12:52;10.57;;;10.20;;
20179;SDS011;10249;48.900;9.090;2023-02-13T02:15:23;8.50;;;8.20;;
20179;SDS011;10249;48.900;9.090;2023-02-13T02:17:50;8.77;;;8.47;;
20179;SDS011;10249;48.900;9.090;2023-02-13T02:20:23;8.60;;;8.30;;
20179;SDS011;10249;48.900;9.090;2023-02-13T02:28:30;10.07;;;9.73;;
20179;SDS011;10249;48.900;9.090;2023-02-13T02:33:49;8.70;;;8.40;;
20179;SDS011;10249;48.900;9.090;2023-02-13T02:36:27;7.23;;;7.03;;
20179;SDS011;10249;48.900;9.090;2023-02-13T02:39:00;7.70;;;7.20;;
20179;SDS011;10249;48.900;9.090;2023-02-13T02:41:30;7.10;;;6.90;;
20179;SDS011;10249;48.900;9.090;2023-02-13T02:44:14;8.20;;;7.80;;
20179;SDS011;10249;48.900;9.090;2023-02-13T02:46:46;6.57;;;6.37;;
20179;SDS011;10249;48.900;9.090;2023-02-13T02:49:34;6.20;;;6.00;;
20179;SDS011;10249;48.900;9.090;2023-02-13T02:52:23;6.57;;;6.37;;
20179;SDS011;10249;48.900;9.090;2023-02-13T02:54:52;6.60;;;6.40;;
20179;SDS011;10249;48.900;9.090;2023-02-13T02:57:31;8.40;;;8.10;;
20179;SDS011;10249;48.900;9.090;2023-02-13T03:00:13;6.73;;;6.53;;
20179;SDS011;10249;48.900;9.090;2023-02-13T03:02:58;6.60;;;6.40;;
20179;SDS011;10249;48.900;9.090;2023-02-13T03:05:43;6.60;;;6.40;;
20179;SDS011;10249;48.900;9.090;2023-02-13T03:08:28;6.73;;;6.53;;
20179;SDS011;10249;48.900;9.090;2023-02-13T03:11:09;7.00;;;6.80;;
20179;SDS011;10249;48.900;9.090;2023-02-13T03:13:54;7.03;;;6.83;;
20179;SDS011;10249;48.900;9.090;2023-02-13T03:16:22;7.20;;;7.00;;
20179;SDS011;10249;48.900;9.090;2023-02-13T03:19:11;8.23;;;7.93;;
20179;SDS011;10249;48.900;9.090;2023-02-13T03:21:58;7.50;;;7.30;;
20179;SDS011;10249;48.900;9.090;2023-02-13T03:24:45;6.80;;;6.60;;
20179;SDS011;10249;48.900;9.090;2023-02-13T03:27:17;6.90;;;6.70;;
20179;SDS011;10249;48.900;9.090;2023-02-13T03:30:11;6.80;;;6.60;;
20179;SDS011;10249;48.900;9.090;2023-02-13T03:32:42;7.00;;;6.80;;
20179;SDS011;10249;48.900;9.090;2023-02-13T03:35:14;6.90;;;6.70;;
20179;SDS011;10249;48.900;9.090;2023-02-13T03:38:07;7.00;;;6.80;;
20179;SDS011;10249;48.900;9.090;2023-02-13T03:40:39;6.97;;;6.77;;
20179;SDS011;10249;48.900;9.090;2023-02-13T03:43:28;7.83;;;7.60;;
20179;SDS011;10249;48.900;9.090;2023-02-13T03:45:58;7.60;;;7.40;;
20179;SDS011;10249;48.900;9.090;2023-02-13T03:48:26;7.50;;;7.30;;
20179;SDS011;10249;48.900;9.090;2023-02-13T03:51:13;7.37;;;7.17;;
20179;SDS011;10249;48.900;9.090;2023-02-13T03:53:43;7.50;;;7.30;;
20179;SDS011;10249;48.900;9.090;2023-02-13T03:56:12;7.67;;;7.47;;
20179;SDS011;10249;48.900;9.090;2023-02-13T03:58:57;7.60;;;7.40;;
20179;SDS011;10249;48.900;9.090;2023-02-13T04:01:42;7.70;;;7.50;;
20179;SDS011;10249;48.900;9.090;2023-02-13T04:04:11;7.33;;;7.13;;
20179;SDS011;10249;48.900;9.090;2023-02-13T04:06:41;7.90;;;7.70;;
20179;SDS011;10249;48.900;9.090;2023-02-13T04:09:13;8.30;;;8.00;;
20179;SDS011;10249;48.900;9.090;2023-02-13T04:11:41;8.30;;;8.00;;
20179;SDS011;10249;48.900;9.090;2023-02-13T04:14:14;8.60;;;8.30;;
20179;SDS011;10249;48.900;9.090;2023-02-13T04:16:45;8.43;;;8.13;;
20179;SDS011;10249;48.900;9.090;2023-02-13T04:19:13;8.60;;;8.30;;
20179;SDS011;10249;48.900;9.090;2023-02-13T04:21:41;8.53;;;8.23;;
20179;SDS011;10249;48.900;9.090;2023-02-13T04:24:08;8.60;;;8.30;;
20179;SDS011;10249;48.900;9.090;2023-02-13T04:26:38;8.80;;;8.50;;
20179;SDS011;10249;48.900;9.090;2023-02-13T04:29:06;8.63;;;8.33;;
20179;SDS011;10249;48.900;9.090;2023-02-13T04:31:34;8.70;;;8.40;;
20179;SDS011;10249;48.900;9.090;2023-02-13T04:34:01;8.60;;;8.30;;
20179;SDS011;10249;48.900;9.090;2023-02-13T04:36:28;8.80;;;8.50;;
20179;SDS011;10249;48.900;9.090;2023-02-13T04:38:55;8.60;;;8.30;;
20179;SDS011;10249;48.900;9.090;2023-02-13T04:41:22;8.80;;;8.50;;
20179;SDS011;10249;48.900;9.090;2023-02-13T04:43:51;8.37;;;8.07;;
20179;SDS011;10249;48.900;9.090;2023-02-13T04:46:18;8.80;;;8.50;;
20179;SDS011;10249;48.900;9.090;2023-02-13T04:48:45;8.30;;;8.00;;
20179;SDS011;10249;48.900;9.090;2023-02-13T04:51:12;8.27;;;7.97;;
20179;SDS011;10249;48.900;9.090;2023-02-13T04:53:39;8.27;;;7.97;;
20179;SDS011;10249;48.900;9.090;2023-02-13T04:56:06;8.50;;;8.20;;
20179;SDS011;10249;48.900;9.090;2023-02-13T04:58:33;8.30;;;8.00;;
20179;SDS011;10249;48.900;9.090;2023-02-13T05:01:02;8.60;;;8.30;;
20179;SDS011;10249;48.900;9.090;2023-02-13T05:03:36;8.57;;;8.27;;
20179;SDS011;10249;48.900;9.090;2023-02-13T05:06:04;8.60;;;8.30;;
20179;SDS011;10249;48.900;9.090;2023-02-13T05:08:31;9.57;;;9.27;;
20179;SDS011;10249;48.900;9.090;2023-02-13T05:10:58;9.57;;;9.27;;
20179;SDS011;10249;48.900;9.090;2023-02-13T05:13:25;8.33;;;8.03;;
20179;SDS011;10249;48.900;9.090;2023-02-13T05:15:52;8.27;;;7.97;;
20179;SDS011;10249;48.900;9.090;2023-02-13T05:18:21;7.90;;;7.70;;
20179;SDS011;10249;48.900;9.090;2023-02-13T05:20:48;8.27;;;7.97;;
20179;SDS011;10249;48.900;9.090;2023-02-13T05:23:38;7.87;;;7.67;;
20179;SDS011;10249;48.900;9.090;2023-02-13T05:26:04;7.60;;;7.40;;
20179;SDS011;10249;48.900;9.090;2023-02-13T05:28:31;7.80;;;7.60;;
20179;SDS011;10249;48.900;9.090;2023-02-13T05:31:16;7.73;;;7.53;;
20179;SDS011;10249;48.900;9.090;2023-02-13T05:33:44;7.93;;;7.73;;
20179;SDS011;10249;48.900;9.090;2023-02-13T05:36:11;7.50;;;7.30;;
20179;SDS011;10249;48.900;9.090;2023-02-13T05:38:38;9.97;;;9.53;;
20179;SDS011;10249;48.900;9.090;2023-02-13T05:41:06;7.73;;;7.53;;
20179;SDS011;10249;48.900;9.090;2023-02-13T05:43:33;7.40;;;7.20;;
20179;SDS011;10249;48.900;9.090;2023-02-13T05:46:01;7.23;;;7.03;;
20179;SDS011;10249;48.900;9.090;2023-02-13T05:48:28;6.90;;;6.70;;
20179;SDS011;10249;48.900;9.090;2023-02-13T05:50:57;7.17;;;6.97;;
20179;SDS011;10249;48.900;9.090;2023-02-13T05:53:24;7.40;;;7.20;;
20179;SDS011;10249;48.900;9.090;2023-02-13T05:55:51;7.30;;;7.10;;
20179;SDS011;10249;48.900;9.090;2023-02-13T05:58:18;7.30;;;7.10;;
20179;SDS011;10249;48.900;9.090;2023-02-13T06:00:46;8.93;;;8.63;;
20179;SDS011;10249;48.900;9.090;2023-02-13T06:03:13;7.30;;;7.10;;
20179;SDS011;10249;48.900;9.090;2023-02-13T06:05:40;7.50;;;7.30;;
20179;SDS011;10249;48.900;9.090;2023-02-13T06:08:08;7.40;;;7.20;;
20179;SDS011;10249;48.900;9.090;2023-02-13T06:10:35;7.50;;;7.30;;
20179;SDS011;10249;48.900;9.090;2023-02-13T06:13:03;10.53;;;10.13;;
20179;SDS011;10249;48.900;9.090;2023-02-13T06:15:30;7.50;;;7.30;;
20179;SDS011;10249;48.900;9.090;2023-02-13T06:17:57;8.07;;;7.80;;
20179;SDS011;10249;48.900;9.090;2023-02-13T06:20:25;9.90;;;9.60;;
20179;SDS011;10249;48.900;9.090;2023-02-13T06:22:52;7.67;;;7.47;;
20179;SDS011;10249;48.900;9.090;2023-02-13T06:25:20;8.50;;;8.20;;
20179;SDS011;10249;48.900;9.090;2023-02-13T06:27:48;7.50;;;7.30;;
20179;SDS011;10249;48.900;9.090;2023-02-13T06:30:15;7.33;;;7.13;;
20179;SDS011;10249;48.900;9.090;2023-02-13T06:32:42;7.67;;;7.47;;
20179;SDS011;10249;48.900;9.090;2023-02-13T06:35:10;7.50;;;7.30;;
20179;SDS011;10249;48.900;9.090;2023-02-13T06:37:37;7.80;;;7.60;;
20179;SDS011;10249;48.900;9.090;2023-02-13T06:40:04;7.80;;;7.60;;
20179;SDS011;10249;48.900;9.090;2023-02-13T06:42:33;7.53;;;7.33;;
20179;SDS011;10249;48.900;9.090;2023-02-13T06:45:00;9.20;;;8.90;;
20179;SDS011;10249;48.900;9.090;2023-02-13T06:47:28;7.70;;;7.50;;
20179;SDS011;10249;48.900;9.090;2023-02-13T06:49:55;7.67;;;7.47;;
20179;SDS011;10249;48.900;9.090;2023-02-13T06:52:22;7.20;;;7.00;;
20179;SDS011;10249;48.900;9.090;2023-02-13T06:54:49;7.00;;;6.80;;
20179;SDS011;10249;48.900;9.090;2023-02-13T06:57:16;7.83;;;7.63;;
20179;SDS011;10249;48.900;9.090;2023-02-13T06:59:45;7.40;;;7.20;;
20179;SDS011;10249;48.900;9.090;2023-02-13T07:02:12;7.67;;;7.47;;
20179;SDS011;10249;48.900;9.090;2023-02-13T07:04:39;7.50;;;7.30;;
20179;SDS011;10249;48.900;9.090;2023-02-13T07:07:06;7.50;;;7.30;;
20179;SDS011;10249;48.900;9.090;2023-02-13T07:09:33;7.63;;;7.43;;
20179;SDS011;10249;48.900;9.090;2023-02-13T07:12:01;7.87;;;7.67;;
20179;SDS011;10249;48.900;9.090;2023-02-13T07:14:29;7.70;;;7.50;;
20179;SDS011;10249;48.900;9.090;2023-02-13T07:16:57;9.40;;;9.10;;
20179;SDS011;10249;48.900;9.090;2023-02-13T07:19:24;8.20;;;7.90;;
20179;SDS011;10249;48.900;9.090;2023-02-13T07:21:51;8.00;;;7.80;;
20179;SDS011;10249;48.900;9.090;2023-02-13T07:24:18;7.83;;;7.63;;
20179;SDS011;10249;48.900;9.090;2023-02-13T07:26:45;7.53;;;7.33;;
20179;SDS011;10249;48.900;9.090;2023-02-13T07:29:12;7.90;;;7.70;;
20179;SDS011;10249;48.900;9.090;2023-02-13T07:31:39;7.87;;;7.67;;
20179;SDS011;10249;48.900;9.090;2023-02-13T07:34:08;7.87;;;7.67;;
20179;SDS011;10249;48.900;9.090;2023-02-13T07:36:35;10.30;;;9.90;;
20179;SDS011;10249;48.900;9.090;2023-02-13T07:39:02;9.43;;;8.97;;
20179;SDS011;10249;48.900;9.090;2023-02-13T07:41:29;9.10;;;8.80;;
20179;SDS011;10249;48.900;9.090;2023-02-13T07:43:56;7.70;;;7.50;;
20179;SDS011;10249;48.900;9.090;2023-02-13T07:46:23;8.13;;;7.90;;
20179;SDS011;10249;48.900;9.090;2023-02-13T07:48:50;7.93;;;7.73;;
20179;SDS011;10249;48.900;9.090;2023-02-13T07:51:19;10.87;;;10.43;;
20179;SDS011;10249;48.900;9.090;2023-02-13T07:53:49;7.97;;;7.77;;
20179;SDS011;10249;48.900;9.090;2023-02-13T07:56:16;7.30;;;7.10;;
20179;SDS011;10249;48.900;9.090;2023-02-13T07:58:43;7.00;;;6.80;;
20179;SDS011;10249;48.900;9.090;2023-02-13T08:01:11;7.20;;;7.00;;
20179;SDS011;10249;48.900;9.090;2023-02-13T08:03:39;7.23;;;7.03;;
20179;SDS011;10249;48.900;9.090;2023-02-13T08:06:06;7.30;;;7.10;;
20179;SDS011;10249;48.900;9.090;2023-02-13T08:08:35;6.90;;;6.70;;
20179;SDS011;10249;48.900;9.090;2023-02-13T08:11:03;7.10;;;6.90;;
20179;SDS011;10249;48.900;9.090;2023-02-13T08:13:49;7.90;;;7.60;;
20179;SDS011;10249;48.900;9.090;2023-02-13T08:16:16;7.00;;;6.80;;
20179;SDS011;10249;48.900;9.090;2023-02-13T08:18:43;7.63;;;7.43;;
20179;SDS011;10249;48.900;9.090;2023-02-13T08:21:10;7.20;;;7.00;;
20179;SDS011;10249;48.900;9.090;2023-02-13T08:23:40;6.93;;;6.73;;
20179;SDS011;10249;48.900;9.090;2023-02-13T08:26:07;7.30;;;7.10;;
20179;SDS011;10249;48.900;9.090;2023-02-13T08:28:35;7.20;;;7.00;;
20179;SDS011;10249;48.900;9.090;2023-02-13T08:31:08;7.10;;;6.90;;
20179;SDS011;10249;48.900;9.090;2023-02-13T08:33:35;7.23;;;7.03;;
20179;SDS011;10249;48.900;9.090;2023-02-13T08:36:03;7.70;;;7.50;;
20179;SDS011;10249;48.900;9.090;2023-02-13T08:38:31;9.17;;;8.87;;
20179;SDS011;10249;48.900;9.090;2023-02-13T08:41:00;8.30;;;8.00;;
20179;SDS011;10249;48.900;9.090;2023-02-13T08:43:27;8.20;;;7.90;;
20179;SDS011;10249;48.900;9.090;2023-02-13T08:45:56;8.10;;;7.80;;
20179;SDS011;10249;48.900;9.090;2023-02-13T08:48:23;9.37;;;8.97;;
20179;SDS011;10249;48.900;9.090;2023-02-13T08:50:50;8.90;;;8.60;;
20179;SDS011;10249;48.900;9.090;2023-02-13T08:53:18;9.20;;;8.90;;
20179;SDS011;10249;48.900;9.090;2023-02-13T08:55:50;9.23;;;8.93;;
20179;SDS011;10249;48.900;9.090;2023-02-13T08:58:18;8.93;;;8.63;;
20179;SDS011;10249;48.900;9.090;2023-02-13T09:00:45;8.60;;;8.30;;
20179;SDS011;10249;48.900;9.090;2023-02-13T09:03:12;9.03;;;8.73;;
20179;SDS011;10249;48.900;9.090;2023-02-13T09:05:40;9.30;;;9.00;;
20179;SDS011;10249;48.900;9.090;2023-02-13T09:08:07;9.80;;;9.50;;
20179;SDS011;10249;48.900;9.090;2023-02-13T09:10:36;9.80;;;9.50;;
20179;SDS011;10249;48.900;9.090;2023-02-13T09:13:03;9.50;;;9.20;;
20179;SDS011;10249;48.900;9.090;2023-02-13T09:15:32;9.90;;;9.60;;
20179;SDS011;10249;48.900;9.090;2023-02-13T09:17:59;10.40;;;10.00;;
20179;SDS011;10249;48.900;9.090;2023-02-13T09:20:26;10.93;;;10.50;;
20179;SDS011;10249;48.900;9.090;2023-02-13T09:22:54;10.50;;;10.10;;
20179;SDS011;10249;48.900;9.090;2023-02-13T09:25:22;11.83;;;11.43;;
20179;SDS011;10249;48.900;9.090;2023-02-13T09:27:49;10.70;;;10.30;;
20179;SDS011;10249;48.900;9.090;2023-02-13T09:30:16;11.13;;;10.73;;
20179;SDS011;10249;48.900;9.090;2023-02-13T09:32:49;10.80;;;10.40;;
20179;SDS011;10249;48.900;9.090;2023-02-13T09:35:16;11.37;;;10.97;;
20179;SDS011;10249;48.900;9.090;2023-02-13T09:37:43;11.13;;;10.73;;
20179;SDS011;10249;48.900;9.090;2023-02-13T09:40:17;11.77;;;11.37;;
20179;SDS011;10249;48.900;9.090;2023-02-13T09:42:46;11.20;;;10.80;;
20179;SDS011;10249;48.900;9.090;2023-02-13T09:45:13;12.10;;;11.60;;
20179;SDS011;10249;48.900;9.090;2023-02-13T09:47:42;12.77;;;12.27;;
20179;SDS011;10249;48.900;9.090;2023-02-13T09:50:12;12.53;;;12.03;;
20179;SDS011;10249;48.900;9.090;2023-02-13T09:52:42;12.00;;;11.50;;
20179;SDS011;10249;48.900;9.090;2023-02-13T09:55:13;12.40;;;11.90;;
20179;SDS011;10249;48.900;9.090;2023-02-13T09:57:41;12.30;;;11.80;;
20179;SDS011;10249;48.900;9.090;2023-02-13T10:00:10;11.77;;;11.27;;
20179;SDS011;10249;48.900;9.090;2023-02-13T10:02:47;11.90;;;11.40;;
20179;SDS011;10249;48.900;9.090;2023-02-13T10:05:33;11.80;;;11.40;;
20179;SDS011;10249;48.900;9.090;2023-02-13T10:08:04;14.97;;;14.37;;
20179;SDS011;10249;48.900;9.090;2023-02-13T10:10:37;12.63;;;12.13;;
20179;SDS011;10249;48.900;9.090;2023-02-13T10:13:16;14.63;;;13.90;;
20179;SDS011;10249;48.900;9.090;2023-02-13T10:15:50;13.00;;;12.50;;
20179;SDS011;10249;48.900;9.090;2023-02-13T10:18:20;13.20;;;12.70;;
20179;SDS011;10249;48.900;9.090;2023-02-13T10:20:50;13.37;;;12.87;;
20179;SDS011;10249;48.900;9.090;2023-02-13T10:23:20;13.10;;;12.60;;
20179;SDS011;10249;48.900;9.090;2023-02-13T10:25:49;13.27;;;12.77;;
20179;SDS011;10249;48.900;9.090;2023-02-13T10:28:20;12.07;;;11.57;;
20179;SDS011;10249;48.900;9.090;2023-02-13T10:30:51;13.93;;;13.33;;
20179;SDS011;10249;48.900;9.090;2023-02-13T10:33:22;12.90;;;12.40;;
20179;SDS011;10249;48.900;9.090;2023-02-13T10:35:55;13.10;;;12.60;;
20179;SDS011;10249;48.900;9.090;2023-02-13T10:38:26;13.73;;;13.13;;
20179;SDS011;10249;48.900;9.090;2023-02-13T10:43:43;13.87;;;13.27;;
20179;SDS011;10249;48.900;9.090;2023-02-13T10:46:13;14.70;;;14.10;;
20179;SDS011;10249;48.900;9.090;2023-02-13T10:49:04;13.50;;;12.90;;
20179;SDS011;10249;48.900;9.090;2023-02-13T10:51:37;13.53;;;12.93;;
20179;SDS011;10249;48.900;9.090;2023-02-13T10:54:15;13.27;;;12.67;;
20179;SDS011;10249;48.900;9.090;2023-02-13T10:56:44;12.70;;;12.20;;
20179;SDS011;10249;48.900;9.090;2023-02-13T10:59:24;12.40;;;11.90;;
20179;SDS011;10249;48.900;9.090;2023-02-13T11:01:54;12.50;;;12.00;;
20179;SDS011;10249;48.900;9.090;2023-02-13T11:04:22;13.20;;;12.70;;
20179;SDS011;10249;48.900;9.090;2023-02-13T11:06:54;13.37;;;12.77;;
20179;SDS011;10249;48.900;9.090;2023-02-13T11:09:21;13.70;;;13.10;;
20179;SDS011;10249;48.900;9.090;2023-02-13T11:11:49;13.97;;;13.37;;
20179;SDS011;10249;48.900;9.090;2023-02-13T11:14:16;13.83;;;13.23;;
20179;SDS011;10249;48.900;9.090;2023-02-13T11:16:48;13.87;;;13.27;;
20179;SDS011;10249;48.900;9.090;2023-02-13T11:19:19;13.63;;;13.03;;
20179;SDS011;10249;48.900;9.090;2023-02-13T11:21:48;13.90;;;13.30;;
20179;SDS011;10249;48.900;9.090;2023-02-13T11:24:21;14.00;;;13.40;;
20179;SDS011;10249;48.900;9.090;2023-02-13T11:26:49;14.07;;;13.47;;
20179;SDS011;10249;48.900;9.090;2023-02-13T11:29:20;13.67;;;13.07;;
20179;SDS011;10249;48.900;9.090;2023-02-13T11:31:48;14.40;;;13.80;;
20179;SDS011;10249;48.900;9.090;2023-02-13T11:34:28;15.60;;;14.90;;
20179;SDS011;10249;48.900;9.090;2023-02-13T11:37:06;14.70;;;14.00;;
20179;SDS011;10249;48.900;9.090;2023-02-13T11:39:35;49.70;;;47.80;;
20179;SDS011;10249;48.900;9.090;2023-02-13T11:42:02;51.27;;;49.37;;
20179;SDS011;10249;48.900;9.090;2023-02-13T11:44:30;50.47;;;48.57;;
20179;SDS011;10249;48.900;9.090;2023-02-13T11:46:58;51.17;;;49.17;;
20179;SDS011;10249;48.900;9.090;2023-02-13T11:49:26;55.40;;;53.30;;
20179;SDS011;10249;48.900;9.090;2023-02-13T11:51:54;56.17;;;54.07;;
20179;SDS011;10249;48.900;9.090;2023-02-13T11:54:29;56.03;;;53.90;;
20179;SDS011;10249;48.900;9.090;2023-02-13T11:56:58;55.60;;;53.50;;
20179;SDS011;10249;48.900;9.090;2023-02-13T11:59:30;59.10;;;56.80;;
20179;SDS011;10249;48.900;9.090;2023-02-13T12:02:01;57.87;;;55.67;;
20179;SDS011;10249;48.900;9.090;2023-02-13T12:04:29;56.97;;;54.77;;
20179;SDS011;10249;48.900;9.090;2023-02-13T12:06:57;57.27;;;55.07;;
20179;SDS011;10249;48.900;9.090;2023-02-13T12:09:25;58.10;;;55.90;;
20179;SDS011;10249;48.900;9.090;2023-02-13T12:11:53;55.60;;;53.43;;
20179;SDS011;10249;48.900;9.090;2023-02-13T12:14:23;57.60;;;55.40;;
20179;SDS011;10249;48.900;9.090;2023-02-13T12:16:52;57.30;;;55.10;;
20179;SDS011;10249;48.900;9.090;2023-02-13T12:19:21;58.07;;;55.87;;
20179;SDS011;10249;48.900;9.090;2023-02-13T12:21:55;56.40;;;54.20;;
20179;SDS011;10249;48.900;9.090;2023-02-13T12:24:32;60.03;;;57.73;;
20179;SDS011;10249;48.900;9.090;2023-02-13T12:27:04;56.27;;;54.07;;
20179;SDS011;10249;48.900;9.090;2023-02-13T12:29:41;54.90;;;52.80;;
20179;SDS011;10249;48.900;9.090;2023-02-13T12:32:15;53.17;;;51.07;;
20179;SDS011;10249;48.900;9.090;2023-02-13T12:40:29;54.40;;;52.20;;
20179;SDS011;10249;48.900;9.090;2023-02-13T12:43:03;54.60;;;52.40;;
20179;SDS011;10249;48.900;9.090;2023-02-13T12:45:37;51.67;;;49.67;;
20179;SDS011;10249;48.900;9.090;2023-02-13T12:48:15;52.73;;;50.63;;
20179;SDS011;10249;48.900;9.090;2023-02-13T12:50:49;52.87;;;50.77;;
20179;SDS011;10249;48.900;9.090;2023-02-13T12:53:21;25.57;;;24.40;;
20179;SDS011;10249;48.900;9.090;2023-02-13T12:55:56;16.40;;;15.60;;
20179;SDS011;10249;48.900;9.090;2023-02-13T12:58:33;15.70;;;14.90;;
20179;SDS011;10249;48.900;9.090;2023-02-13T13:01:08;16.63;;;15.73;;
20179;SDS011;10249;48.900;9.090;2023-02-13T13:03:40;16.10;;;15.30;;
20179;SDS011;10249;48.900;9.090;2023-02-13T13:06:22;17.17;;;16.27;;
20179;SDS011;10249;48.900;9.090;2023-02-13T13:08:56;17.10;;;16.20;;
20179;SDS011;10249;48.900;9.090;2023-02-13T13:11:28;17.03;;;16.13;;
20179;SDS011;10249;48.900;9.090;2023-02-13T13:14:01;16.97;;;16.07;;
20179;SDS011;10249;48.900;9.090;2023-02-13T13:16:32;17.60;;;16.60;;
20179;SDS011;10249;48.900;9.090;2023-02-13T13:19:03;16.97;;;16.07;;
20179;SDS011;10249;48.900;9.090;2023-02-13T13:21:36;16.77;;;15.87;;
20179;SDS011;10249;48.900;9.090;2023-02-13T13:24:09;17.27;;;16.37;;
20179;SDS011;10249;48.900;9.090;2023-02-13T13:26:40;18.07;;;17.07;;
20179;SDS011;10249;48.900;9.090;2023-02-13T13:29:09;17.20;;;16.30;;
20179;SDS011;10249;48.900;9.090;2023-02-13T13:31:39;17.08;;;16.17;;
20179;SDS011;10249;48.900;9.090;2023-02-13T13:34:11;16.77;;;15.87;;
20179;SDS011;10249;48.900;9.090;2023-02-13T13:36:40;17.20;;;16.30;;
20179;SDS011;10249;48.900;9.090;2023-02-13T13:39:13;18.30;;;17.40;;
20179;SDS011;10249;48.900;9.090;2023-02-13T13:41:45;17.30;;;16.40;;
20179;SDS011;10249;48.900;9.090;2023-02-13T13:44:18;16.67;;;15.77;;
20179;SDS011;10249;48.900;9.090;2023-02-13T13:46:54;17.17;;;16.27;;
20179;SDS011;10249;48.900;9.090;2023-02-13T13:49:25;16.42;;;15.52;;
20179;SDS011;10249;48.900;9.090;2023-02-13T13:51:53;17.20;;;16.30;;
20179;SDS011;10249;48.900;9.090;2023-02-13T13:54:34;16.90;;;16.00;;
20179;SDS011;10249;48.900;9.090;2023-02-13T13:57:11;16.83;;;15.93;;
20179;SDS011;10249;48.900;9.090;2023-02-13T13:59:54;16.98;;;16.08;;
20179;SDS011;10249;48.900;9.090;2023-02-13T14:02:37;16.95;;;16.05;;
20179;SDS011;10249;48.900;9.090;2023-02-13T14:05:09;16.35;;;15.50;;
20179;SDS011;10249;48.900;9.090;2023-02-13T14:07:43;16.90;;;16.00;;
20179;SDS011;10249;48.900;9.090;2023-02-13T14:10:19;16.88;;;15.98;;
20179;SDS011;10249;48.900;9.090;2023-02-13T14:13:07;16.65;;;15.75;;
20179;SDS011;10249;48.900;9.090;2023-02-13T14:15:50;17.20;;;16.30;;
20179;SDS011;10249;48.900;9.090;2023-02-13T14:18:19;16.67;;;15.77;;
20179;SDS011;10249;48.900;9.090;2023-02-13T14:20:51;16.93;;;16.03;;
20179;SDS011;10249;48.900;9.090;2023-02-13T14:23:27;17.63;;;16.73;;
20179;SDS011;10249;48.900;9.090;2023-02-13T14:26:10;17.17;;;16.27;;
20179;SDS011;10249;48.900;9.090;2023-02-13T14:28:40;16.93;;;16.03;;
20179;SDS011;10249;48.900;9.090;2023-02-13T14:31:08;18.13;;;17.13;;
20179;SDS011;10249;48.900;9.090;2023-02-13T14:33:40;17.57;;;16.67;;
20179;SDS011;10249;48.900;9.090;2023-02-13T14:36:16;16.97;;;16.07;;
20179;SDS011;10249;48.900;9.090;2023-02-13T14:38:47;17.37;;;16.47;;
20179;SDS011;10249;48.900;9.090;2023-02-13T14:44:11;17.43;;;16.53;;
20179;SDS011;10249;48.900;9.090;2023-02-13T14:46:40;17.70;;;16.70;;
20179;SDS011;10249;48.900;9.090;2023-02-13T14:49:10;18.53;;;17.43;;
20179;SDS011;10249;48.900;9.090;2023-02-13T14:51:40;18.90;;;17.90;;
20179;SDS011;10249;48.900;9.090;2023-02-13T14:54:14;17.30;;;16.40;;
20179;SDS011;10249;48.900;9.090;2023-02-13T14:56:45;16.97;;;16.07;;
20179;SDS011;10249;48.900;9.090;2023-02-13T14:59:15;17.07;;;16.17;;
20179;SDS011;10249;48.900;9.090;2023-02-13T15:01:45;17.80;;;16.80;;
20179;SDS011;10249;48.900;9.090;2023-02-13T15:04:14;16.80;;;15.90;;
20179;SDS011;10249;48.900;9.090;2023-02-13T15:06:43;16.80;;;15.90;;
20179;SDS011;10249;48.900;9.090;2023-02-13T15:09:16;17.00;;;16.10;;
20179;SDS011;10249;48.900;9.090;2023-02-13T15:11:45;16.75;;;15.85;;
20179;SDS011;10249;48.900;9.090;2023-02-13T15:14:21;17.00;;;16.10;;
20179;SDS011;10249;48.900;9.090;2023-02-13T15:16:50;16.75;;;15.85;;